sensor_id;sensor_type;location;lat;lon;timestamp;P1;durP1;ratioP1;P2;durP2;ratioP2
14247;SDS011;7208;49.826;6.004;2024-03-17T00:01:04;3.20;;;1.90;;
14247;SDS011;7208;49.826;6.004;2024-03-17T00:03:30;3.93;;;2.20;;
14247;SDS011;7208;49.826;6.004;2024-03-17T00:05:57;2.10;;;1.70;;
14247;SDS011;7208;49.826;6.004;2024-03-17T00:08:23;3.63;;;2.10;;
14247;SDS011;7208;49.826;6.004;2024-03-17T00:10:55;1.90;;;1.80;;
14247;SDS011;7208;49.826;6.004;2024-03-17T00:13:22;4.17;;;2.00;;
14247;SDS011;7208;49.826;6.004;2024-03-17T00:15:48;2.97;;;1.87;;
14247;SDS011;7208;49.826;6.004;2024-03-17T00:18:14;2.93;;;1.70;;
14247;SDS011;7208;49.826;6.004;2024-03-17T00:20:40;1.47;;;1.30;;
14247;SDS011;7208;49.826;6.004;2024-03-17T00:23:07;2.53;;;1.70;;
14247;SDS011;7208;49.826;6.004;2024-03-17T00:25:34;1.47;;;1.37;;
14247;SDS011;7208;49.826;6.004;2024-03-17T00:28:01;2.20;;;1.70;;
14247;SDS011;7208;49.826;6.004;2024-03-17T00:30:27;1.23;;;1.13;;
14247;SDS011;7208;49.826;6.004;2024-03-17T00:32:53;1.83;;;1.23;;
14247;SDS011;7208;49.826;6.004;2024-03-17T00:35:20;1.20;;;1.10;;
14247;SDS011;7208;49.826;6.004;2024-03-17T00:37:50;3.20;;;1.33;;
14247;SDS011;7208;49.826;6.004;2024-03-17T00:40:17;1.30;;;1.20;;
14247;SDS011;7208;49.826;6.004;2024-03-17T00:42:43;1.27;;;1.20;;
14247;SDS011;7208;49.826;6.004;2024-03-17T00:45:10;2.30;;;1.53;;
14247;SDS011;7208;49.826;6.004;2024-03-17T00:47:36;1.70;;;1.37;;
14247;SDS011;7208;49.826;6.004;2024-03-17T00:50:03;2.40;;;1.10;;
14247;SDS011;7208;49.826;6.004;2024-03-17T00:52:31;1.57;;;1.47;;
14247;SDS011;7208;49.826;6.004;2024-03-17T00:54:57;3.83;;;1.30;;
14247;SDS011;7208;49.826;6.004;2024-03-17T00:57:23;1.50;;;1.40;;
14247;SDS011;7208;49.826;6.004;2024-03-17T00:59:50;1.30;;;1.20;;
14247;SDS011;7208;49.826;6.004;2024-03-17T01:02:17;1.93;;;1.50;;
14247;SDS011;7208;49.826;6.004;2024-03-17T01:04:43;1.77;;;1.40;;
14247;SDS011;7208;49.826;6.004;2024-03-17T01:07:09;3.43;;;2.23;;
14247;SDS011;7208;49.826;6.004;2024-03-17T01:09:36;2.40;;;1.70;;
14247;SDS011;7208;49.826;6.004;2024-03-17T01:12:02;3.33;;;1.87;;
14247;SDS011;7208;49.826;6.004;2024-03-17T01:14:28;1.67;;;1.57;;
14247;SDS011;7208;49.826;6.004;2024-03-17T01:16:55;1.97;;;1.50;;
14247;SDS011;7208;49.826;6.004;2024-03-17T01:19:21;2.97;;;1.40;;
14247;SDS011;7208;49.826;6.004;2024-03-17T01:21:47;1.73;;;1.50;;
14247;SDS011;7208;49.826;6.004;2024-03-17T01:24:14;2.63;;;1.47;;
14247;SDS011;7208;49.826;6.004;2024-03-17T01:26:40;4.37;;;1.90;;
14247;SDS011;7208;49.826;6.004;2024-03-17T01:29:06;2.37;;;1.87;;
14247;SDS011;7208;49.826;6.004;2024-03-17T01:31:34;3.00;;;1.80;;
14247;SDS011;7208;49.826;6.004;2024-03-17T01:34:00;2.17;;;1.57;;
14247;SDS011;7208;49.826;6.004;2024-03-17T01:36:26;3.73;;;2.00;;
14247;SDS011;7208;49.826;6.004;2024-03-17T01:38:52;3.97;;;2.57;;
14247;SDS011;7208;49.826;6.004;2024-03-17T01:41:18;1.57;;;1.47;;
14247;SDS011;7208;49.826;6.004;2024-03-17T01:43:44;2.43;;;1.60;;
14247;SDS011;7208;49.826;6.004;2024-03-17T01:46:11;3.53;;;1.73;;
14247;SDS011;7208;49.826;6.004;2024-03-17T01:48:39;1.93;;;1.60;;
14247;SDS011;7208;49.826;6.004;2024-03-17T01:51:05;1.60;;;1.50;;
14247;SDS011;7208;49.826;6.004;2024-03-17T01:53:31;1.40;;;1.27;;
14247;SDS011;7208;49.826;6.004;2024-03-17T01:55:58;2.33;;;1.60;;
14247;SDS011;7208;49.826;6.004;2024-03-17T01:58:25;1.70;;;1.43;;
14247;SDS011;7208;49.826;6.004;2024-03-17T02:00:51;1.30;;;1.20;;
14247;SDS011;7208;49.826;6.004;2024-03-17T02:03:17;1.20;;;1.10;;
14247;SDS011;7208;49.826;6.004;2024-03-17T02:05:43;3.67;;;1.53;;
14247;SDS011;7208;49.826;6.004;2024-03-17T02:08:10;1.10;;;1.07;;
14247;SDS011;7208;49.826;6.004;2024-03-17T02:10:37;1.73;;;1.20;;
14247;SDS011;7208;49.826;6.004;2024-03-17T02:13:03;1.80;;;1.70;;
14247;SDS011;7208;49.826;6.004;2024-03-17T02:15:29;1.40;;;1.30;;
14247;SDS011;7208;49.826;6.004;2024-03-17T02:17:56;1.33;;;1.23;;
14247;SDS011;7208;49.826;6.004;2024-03-17T02:20:22;1.43;;;1.33;;
14247;SDS011;7208;49.826;6.004;2024-03-17T02:23:08;1.70;;;1.20;;
14247;SDS011;7208;49.826;6.004;2024-03-17T02:25:34;1.20;;;1.10;;
14247;SDS011;7208;49.826;6.004;2024-03-17T02:28:00;1.47;;;1.20;;
14247;SDS011;7208;49.826;6.004;2024-03-17T02:30:26;2.00;;;1.40;;
14247;SDS011;7208;49.826;6.004;2024-03-17T02:32:53;1.73;;;1.60;;
14247;SDS011;7208;49.826;6.004;2024-03-17T02:35:20;1.43;;;1.33;;
14247;SDS011;7208;49.826;6.004;2024-03-17T02:37:46;1.43;;;1.33;;
14247;SDS011;7208;49.826;6.004;2024-03-17T02:40:12;1.60;;;1.50;;
14247;SDS011;7208;49.826;6.004;2024-03-17T02:42:39;1.60;;;1.50;;
14247;SDS011;7208;49.826;6.004;2024-03-17T02:45:07;1.53;;;1.43;;
14247;SDS011;7208;49.826;6.004;2024-03-17T02:47:33;1.20;;;1.10;;
14247;SDS011;7208;49.826;6.004;2024-03-17T02:50:00;1.40;;;1.30;;
14247;SDS011;7208;49.826;6.004;2024-03-17T02:52:27;1.60;;;1.50;;
14247;SDS011;7208;49.826;6.004;2024-03-17T02:54:53;1.53;;;1.40;;
14247;SDS011;7208;49.826;6.004;2024-03-17T02:57:19;1.13;;;1.07;;
14247;SDS011;7208;49.826;6.004;2024-03-17T02:59:48;3.37;;;1.50;;
14247;SDS011;7208;49.826;6.004;2024-03-17T03:02:14;1.70;;;1.50;;
14247;SDS011;7208;49.826;6.004;2024-03-17T03:04:40;1.70;;;1.60;;
14247;SDS011;7208;49.826;6.004;2024-03-17T03:07:06;1.17;;;1.00;;
14247;SDS011;7208;49.826;6.004;2024-03-17T03:09:33;1.77;;;1.37;;
14247;SDS011;7208;49.826;6.004;2024-03-17T03:11:59;1.30;;;1.20;;
14247;SDS011;7208;49.826;6.004;2024-03-17T03:14:29;1.93;;;1.27;;
14247;SDS011;7208;49.826;6.004;2024-03-17T03:16:55;1.30;;;1.20;;
14247;SDS011;7208;49.826;6.004;2024-03-17T03:19:21;1.20;;;1.10;;
14247;SDS011;7208;49.826;6.004;2024-03-17T03:21:47;1.30;;;1.20;;
14247;SDS011;7208;49.826;6.004;2024-03-17T03:24:14;1.53;;;1.27;;
14247;SDS011;7208;49.826;6.004;2024-03-17T03:26:40;1.40;;;1.23;;
14247;SDS011;7208;49.826;6.004;2024-03-17T03:29:07;2.13;;;1.63;;
14247;SDS011;7208;49.826;6.004;2024-03-17T03:31:33;1.13;;;1.10;;
14247;SDS011;7208;49.826;6.004;2024-03-17T03:34:00;2.23;;;1.40;;
14247;SDS011;7208;49.826;6.004;2024-03-17T03:36:26;1.60;;;1.50;;
14247;SDS011;7208;49.826;6.004;2024-03-17T03:38:53;1.93;;;1.70;;
14247;SDS011;7208;49.826;6.004;2024-03-17T03:41:22;1.80;;;1.70;;
14247;SDS011;7208;49.826;6.004;2024-03-17T03:43:48;1.57;;;1.43;;
14247;SDS011;7208;49.826;6.004;2024-03-17T03:46:14;1.53;;;1.40;;
14247;SDS011;7208;49.826;6.004;2024-03-17T03:48:40;2.00;;;1.70;;
14247;SDS011;7208;49.826;6.004;2024-03-17T03:51:07;2.13;;;1.53;;
14247;SDS011;7208;49.826;6.004;2024-03-17T03:53:34;1.53;;;1.37;;
14247;SDS011;7208;49.826;6.004;2024-03-17T03:56:02;2.17;;;1.97;;
14247;SDS011;7208;49.826;6.004;2024-03-17T03:58:31;2.27;;;1.47;;
14247;SDS011;7208;49.826;6.004;2024-03-17T04:00:59;1.87;;;1.57;;
14247;SDS011;7208;49.826;6.004;2024-03-17T04:03:25;2.03;;;1.63;;
14247;SDS011;7208;49.826;6.004;2024-03-17T04:06:00;1.60;;;1.50;;
14247;SDS011;7208;49.826;6.004;2024-03-17T04:08:26;1.70;;;1.57;;
14247;SDS011;7208;49.826;6.004;2024-03-17T04:10:52;1.10;;;1.00;;
14247;SDS011;7208;49.826;6.004;2024-03-17T04:13:18;1.43;;;1.00;;
14247;SDS011;7208;49.826;6.004;2024-03-17T04:15:44;1.37;;;1.27;;
14247;SDS011;7208;49.826;6.004;2024-03-17T04:18:10;3.20;;;1.60;;
14247;SDS011;7208;49.826;6.004;2024-03-17T04:20:36;1.93;;;1.43;;
14247;SDS011;7208;49.826;6.004;2024-03-17T04:23:03;1.47;;;1.37;;
14247;SDS011;7208;49.826;6.004;2024-03-17T04:25:30;2.10;;;1.43;;
14247;SDS011;7208;49.826;6.004;2024-03-17T04:27:57;1.53;;;1.20;;
14247;SDS011;7208;49.826;6.004;2024-03-17T04:30:23;1.80;;;1.70;;
14247;SDS011;7208;49.826;6.004;2024-03-17T04:32:49;1.83;;;1.53;;
14247;SDS011;7208;49.826;6.004;2024-03-17T04:35:17;1.67;;;1.57;;
14247;SDS011;7208;49.826;6.004;2024-03-17T04:37:43;1.50;;;1.40;;
14247;SDS011;7208;49.826;6.004;2024-03-17T04:40:09;1.60;;;1.40;;
14247;SDS011;7208;49.826;6.004;2024-03-17T04:42:35;1.20;;;1.10;;
14247;SDS011;7208;49.826;6.004;2024-03-17T04:45:04;2.17;;;1.53;;
14247;SDS011;7208;49.826;6.004;2024-03-17T04:47:30;1.63;;;1.53;;
14247;SDS011;7208;49.826;6.004;2024-03-17T04:49:56;1.40;;;1.27;;
14247;SDS011;7208;49.826;6.004;2024-03-17T04:52:22;1.43;;;1.33;;
14247;SDS011;7208;49.826;6.004;2024-03-17T04:54:48;1.87;;;1.70;;
14247;SDS011;7208;49.826;6.004;2024-03-17T04:57:14;2.50;;;1.80;;
14247;SDS011;7208;49.826;6.004;2024-03-17T04:59:40;2.03;;;1.60;;
14247;SDS011;7208;49.826;6.004;2024-03-17T05:02:07;1.80;;;1.70;;
14247;SDS011;7208;49.826;6.004;2024-03-17T05:04:33;2.80;;;2.30;;
14247;SDS011;7208;49.826;6.004;2024-03-17T05:06:59;5.00;;;1.67;;
14247;SDS011;7208;49.826;6.004;2024-03-17T05:09:25;2.53;;;1.80;;
14247;SDS011;7208;49.826;6.004;2024-03-17T05:11:51;2.10;;;1.47;;
14247;SDS011;7208;49.826;6.004;2024-03-17T05:14:17;1.83;;;1.73;;
14247;SDS011;7208;49.826;6.004;2024-03-17T05:16:50;3.40;;;1.30;;
14247;SDS011;7208;49.826;6.004;2024-03-17T05:19:16;2.67;;;1.77;;
14247;SDS011;7208;49.826;6.004;2024-03-17T05:21:43;3.67;;;1.60;;
14247;SDS011;7208;49.826;6.004;2024-03-17T05:24:09;2.03;;;1.67;;
14247;SDS011;7208;49.826;6.004;2024-03-17T05:26:37;1.33;;;1.23;;
14247;SDS011;7208;49.826;6.004;2024-03-17T05:29:03;1.50;;;1.40;;
14247;SDS011;7208;49.826;6.004;2024-03-17T05:31:29;1.50;;;1.20;;
14247;SDS011;7208;49.826;6.004;2024-03-17T05:33:56;1.77;;;1.67;;
14247;SDS011;7208;49.826;6.004;2024-03-17T05:36:22;2.03;;;1.80;;
14247;SDS011;7208;49.826;6.004;2024-03-17T05:38:48;1.57;;;1.47;;
14247;SDS011;7208;49.826;6.004;2024-03-17T05:41:15;1.97;;;1.87;;
14247;SDS011;7208;49.826;6.004;2024-03-17T05:43:41;1.73;;;1.57;;
14247;SDS011;7208;49.826;6.004;2024-03-17T05:46:11;1.63;;;1.53;;
14247;SDS011;7208;49.826;6.004;2024-03-17T05:48:40;1.83;;;1.63;;
14247;SDS011;7208;49.826;6.004;2024-03-17T05:51:07;2.37;;;1.63;;
14247;SDS011;7208;49.826;6.004;2024-03-17T05:53:33;2.53;;;1.67;;
14247;SDS011;7208;49.826;6.004;2024-03-17T05:56:00;2.30;;;2.07;;
14247;SDS011;7208;49.826;6.004;2024-03-17T05:58:26;4.00;;;3.47;;
14247;SDS011;7208;49.826;6.004;2024-03-17T06:00:53;2.23;;;1.90;;
14247;SDS011;7208;49.826;6.004;2024-03-17T06:03:19;2.60;;;1.87;;
14247;SDS011;7208;49.826;6.004;2024-03-17T06:05:46;2.60;;;1.80;;
14247;SDS011;7208;49.826;6.004;2024-03-17T06:08:12;2.63;;;1.90;;
14247;SDS011;7208;49.826;6.004;2024-03-17T06:10:42;2.43;;;2.00;;
14247;SDS011;7208;49.826;6.004;2024-03-17T06:13:08;2.40;;;1.57;;
14247;SDS011;7208;49.826;6.004;2024-03-17T06:15:38;3.30;;;1.83;;
14247;SDS011;7208;49.826;6.004;2024-03-17T06:18:04;2.43;;;1.80;;
14247;SDS011;7208;49.826;6.004;2024-03-17T06:20:33;4.27;;;3.50;;
14247;SDS011;7208;49.826;6.004;2024-03-17T06:23:00;4.97;;;4.00;;
14247;SDS011;7208;49.826;6.004;2024-03-17T06:25:26;1.93;;;1.73;;
14247;SDS011;7208;49.826;6.004;2024-03-17T06:27:53;2.47;;;1.83;;
14247;SDS011;7208;49.826;6.004;2024-03-17T06:30:22;2.30;;;2.00;;
14247;SDS011;7208;49.826;6.004;2024-03-17T06:32:48;3.50;;;1.80;;
14247;SDS011;7208;49.826;6.004;2024-03-17T06:35:14;3.80;;;1.70;;
14247;SDS011;7208;49.826;6.004;2024-03-17T06:37:43;6.07;;;1.93;;
14247;SDS011;7208;49.826;6.004;2024-03-17T06:40:13;2.63;;;1.80;;
14247;SDS011;7208;49.826;6.004;2024-03-17T06:42:39;2.37;;;2.17;;
14247;SDS011;7208;49.826;6.004;2024-03-17T06:45:05;1.60;;;1.50;;
14247;SDS011;7208;49.826;6.004;2024-03-17T06:47:35;3.47;;;1.57;;
14247;SDS011;7208;49.826;6.004;2024-03-17T06:50:04;2.60;;;1.67;;
14247;SDS011;7208;49.826;6.004;2024-03-17T06:52:31;4.80;;;2.37;;
14247;SDS011;7208;49.826;6.004;2024-03-17T06:54:57;3.03;;;2.20;;
14247;SDS011;7208;49.826;6.004;2024-03-17T06:57:24;2.27;;;1.87;;
14247;SDS011;7208;49.826;6.004;2024-03-17T06:59:50;3.10;;;2.63;;
14247;SDS011;7208;49.826;6.004;2024-03-17T07:02:16;2.97;;;2.17;;
14247;SDS011;7208;49.826;6.004;2024-03-17T07:04:44;2.97;;;1.77;;
14247;SDS011;7208;49.826;6.004;2024-03-17T07:07:11;3.30;;;2.40;;
14247;SDS011;7208;49.826;6.004;2024-03-17T07:09:38;2.23;;;1.90;;
14247;SDS011;7208;49.826;6.004;2024-03-17T07:12:06;3.87;;;2.57;;
14247;SDS011;7208;49.826;6.004;2024-03-17T07:14:32;6.87;;;2.70;;
14247;SDS011;7208;49.826;6.004;2024-03-17T07:16:58;2.83;;;2.63;;
14247;SDS011;7208;49.826;6.004;2024-03-17T07:19:24;3.30;;;2.40;;
14247;SDS011;7208;49.826;6.004;2024-03-17T07:21:50;3.87;;;2.93;;
14247;SDS011;7208;49.826;6.004;2024-03-17T07:24:16;4.63;;;2.70;;
14247;SDS011;7208;49.826;6.004;2024-03-17T07:26:42;3.70;;;2.70;;
14247;SDS011;7208;49.826;6.004;2024-03-17T07:29:08;2.77;;;2.47;;
14247;SDS011;7208;49.826;6.004;2024-03-17T07:31:34;2.43;;;2.23;;
14247;SDS011;7208;49.826;6.004;2024-03-17T07:34:00;3.40;;;2.67;;
14247;SDS011;7208;49.826;6.004;2024-03-17T07:36:27;2.93;;;2.63;;
14247;SDS011;7208;49.826;6.004;2024-03-17T07:38:53;5.17;;;2.67;;
14247;SDS011;7208;49.826;6.004;2024-03-17T07:41:19;3.60;;;2.67;;
14247;SDS011;7208;49.826;6.004;2024-03-17T07:43:45;4.70;;;3.10;;
14247;SDS011;7208;49.826;6.004;2024-03-17T07:46:12;5.63;;;3.87;;
14247;SDS011;7208;49.826;6.004;2024-03-17T07:48:39;8.60;;;6.53;;
14247;SDS011;7208;49.826;6.004;2024-03-17T07:51:06;8.03;;;5.80;;
14247;SDS011;7208;49.826;6.004;2024-03-17T07:53:34;8.17;;;4.53;;
14247;SDS011;7208;49.826;6.004;2024-03-17T07:56:00;7.73;;;5.43;;
14247;SDS011;7208;49.826;6.004;2024-03-17T07:58:27;7.13;;;5.63;;
14247;SDS011;7208;49.826;6.004;2024-03-17T08:00:57;6.53;;;5.23;;
14247;SDS011;7208;49.826;6.004;2024-03-17T08:03:30;10.43;;;6.93;;
14247;SDS011;7208;49.826;6.004;2024-03-17T08:05:57;7.67;;;5.80;;
14247;SDS011;7208;49.826;6.004;2024-03-17T08:08:24;7.03;;;5.37;;
14247;SDS011;7208;49.826;6.004;2024-03-17T08:10:50;5.37;;;4.87;;
14247;SDS011;7208;49.826;6.004;2024-03-17T08:13:17;5.37;;;4.53;;
14247;SDS011;7208;49.826;6.004;2024-03-17T08:15:44;5.00;;;4.50;;
14247;SDS011;7208;49.826;6.004;2024-03-17T08:18:13;4.83;;;4.33;;
14247;SDS011;7208;49.826;6.004;2024-03-17T08:20:42;6.27;;;4.60;;
14247;SDS011;7208;49.826;6.004;2024-03-17T08:23:08;4.70;;;4.23;;
14247;SDS011;7208;49.826;6.004;2024-03-17T08:25:36;5.13;;;4.63;;
14247;SDS011;7208;49.826;6.004;2024-03-17T08:28:02;6.53;;;4.57;;
14247;SDS011;7208;49.826;6.004;2024-03-17T08:30:28;5.30;;;4.23;;
14247;SDS011;7208;49.826;6.004;2024-03-17T08:32:58;8.50;;;5.47;;
14247;SDS011;7208;49.826;6.004;2024-03-17T08:35:24;6.07;;;4.77;;
14247;SDS011;7208;49.826;6.004;2024-03-17T08:37:50;6.30;;;5.27;;
14247;SDS011;7208;49.826;6.004;2024-03-17T08:40:17;5.43;;;4.70;;
14247;SDS011;7208;49.826;6.004;2024-03-17T08:42:43;6.60;;;5.10;;
14247;SDS011;7208;49.826;6.004;2024-03-17T08:45:10;8.40;;;5.57;;
14247;SDS011;7208;49.826;6.004;2024-03-17T08:47:37;6.37;;;5.20;;
14247;SDS011;7208;49.826;6.004;2024-03-17T08:50:03;8.13;;;5.47;;
14247;SDS011;7208;49.826;6.004;2024-03-17T08:52:30;5.33;;;4.83;;
14247;SDS011;7208;49.826;6.004;2024-03-17T08:54:57;6.30;;;5.23;;
14247;SDS011;7208;49.826;6.004;2024-03-17T08:57:23;5.87;;;5.03;;
14247;SDS011;7208;49.826;6.004;2024-03-17T08:59:49;5.80;;;4.87;;
14247;SDS011;7208;49.826;6.004;2024-03-17T09:02:18;6.13;;;5.00;;
14247;SDS011;7208;49.826;6.004;2024-03-17T09:04:46;5.90;;;5.00;;
14247;SDS011;7208;49.826;6.004;2024-03-17T09:07:12;6.33;;;4.83;;
14247;SDS011;7208;49.826;6.004;2024-03-17T09:09:40;6.20;;;5.27;;
14247;SDS011;7208;49.826;6.004;2024-03-17T09:12:07;5.50;;;4.67;;
14247;SDS011;7208;49.826;6.004;2024-03-17T09:14:34;5.80;;;4.63;;
14247;SDS011;7208;49.826;6.004;2024-03-17T09:17:00;4.80;;;4.07;;
14247;SDS011;7208;49.826;6.004;2024-03-17T09:19:26;5.60;;;4.50;;
14247;SDS011;7208;49.826;6.004;2024-03-17T09:21:54;4.43;;;4.07;;
14247;SDS011;7208;49.826;6.004;2024-03-17T09:24:20;6.10;;;4.53;;
14247;SDS011;7208;49.826;6.004;2024-03-17T09:26:46;5.40;;;3.93;;
14247;SDS011;7208;49.826;6.004;2024-03-17T09:29:12;5.03;;;4.53;;
14247;SDS011;7208;49.826;6.004;2024-03-17T09:31:40;7.73;;;4.20;;
14247;SDS011;7208;49.826;6.004;2024-03-17T09:34:07;4.40;;;4.00;;
14247;SDS011;7208;49.826;6.004;2024-03-17T09:36:33;4.83;;;4.33;;
14247;SDS011;7208;49.826;6.004;2024-03-17T09:38:59;4.70;;;4.23;;
14247;SDS011;7208;49.826;6.004;2024-03-17T09:41:29;4.73;;;3.90;;
14247;SDS011;7208;49.826;6.004;2024-03-17T09:43:58;4.97;;;4.43;;
14247;SDS011;7208;49.826;6.004;2024-03-17T09:46:25;4.73;;;4.30;;
14247;SDS011;7208;49.826;6.004;2024-03-17T09:48:54;5.13;;;4.63;;
14247;SDS011;7208;49.826;6.004;2024-03-17T09:51:23;5.23;;;3.97;;
14247;SDS011;7208;49.826;6.004;2024-03-17T09:53:50;5.20;;;4.17;;
14247;SDS011;7208;49.826;6.004;2024-03-17T09:56:17;4.83;;;4.37;;
14247;SDS011;7208;49.826;6.004;2024-03-17T09:58:50;7.20;;;4.77;;
14247;SDS011;7208;49.826;6.004;2024-03-17T10:01:16;4.83;;;4.20;;
14247;SDS011;7208;49.826;6.004;2024-03-17T10:03:43;4.80;;;3.93;;
14247;SDS011;7208;49.826;6.004;2024-03-17T10:06:13;6.60;;;4.70;;
14247;SDS011;7208;49.826;6.004;2024-03-17T10:08:47;5.73;;;4.60;;
14247;SDS011;7208;49.826;6.004;2024-03-17T10:11:15;4.50;;;4.10;;
14247;SDS011;7208;49.826;6.004;2024-03-17T10:13:42;8.77;;;5.60;;
14247;SDS011;7208;49.826;6.004;2024-03-17T10:16:17;4.93;;;4.13;;
14247;SDS011;7208;49.826;6.004;2024-03-17T10:18:46;6.13;;;4.00;;
14247;SDS011;7208;49.826;6.004;2024-03-17T10:21:25;4.13;;;3.70;;
14247;SDS011;7208;49.826;6.004;2024-03-17T10:24:05;4.77;;;4.27;;
14247;SDS011;7208;49.826;6.004;2024-03-17T10:26:35;6.10;;;4.13;;
14247;SDS011;7208;49.826;6.004;2024-03-17T10:29:02;6.10;;;4.33;;
14247;SDS011;7208;49.826;6.004;2024-03-17T10:31:29;6.10;;;4.50;;
14247;SDS011;7208;49.826;6.004;2024-03-17T10:34:02;4.50;;;4.10;;
14247;SDS011;7208;49.826;6.004;2024-03-17T10:36:28;3.80;;;3.50;;
14247;SDS011;7208;49.826;6.004;2024-03-17T10:38:54;6.38;;;4.30;;
14247;SDS011;7208;49.826;6.004;2024-03-17T10:41:20;3.67;;;3.37;;
14247;SDS011;7208;49.826;6.004;2024-03-17T10:43:47;4.27;;;3.53;;
14247;SDS011;7208;49.826;6.004;2024-03-17T10:46:14;5.10;;;4.37;;
14247;SDS011;7208;49.826;6.004;2024-03-17T10:48:40;4.13;;;3.43;;
14247;SDS011;7208;49.826;6.004;2024-03-17T10:51:08;4.33;;;3.93;;
14247;SDS011;7208;49.826;6.004;2024-03-17T10:53:40;7.07;;;4.97;;
14247;SDS011;7208;49.826;6.004;2024-03-17T10:56:07;5.20;;;3.70;;
14247;SDS011;7208;49.826;6.004;2024-03-17T10:58:38;4.20;;;3.73;;
14247;SDS011;7208;49.826;6.004;2024-03-17T11:01:11;4.00;;;3.10;;
14247;SDS011;7208;49.826;6.004;2024-03-17T11:03:39;5.03;;;3.83;;
14247;SDS011;7208;49.826;6.004;2024-03-17T11:06:06;4.83;;;3.60;;
14247;SDS011;7208;49.826;6.004;2024-03-17T11:08:33;4.63;;;3.53;;
14247;SDS011;7208;49.826;6.004;2024-03-17T11:11:00;3.93;;;3.50;;
14247;SDS011;7208;49.826;6.004;2024-03-17T11:13:27;4.17;;;3.67;;
14247;SDS011;7208;49.826;6.004;2024-03-17T11:15:53;4.33;;;3.93;;
14247;SDS011;7208;49.826;6.004;2024-03-17T11:21:05;3.40;;;3.10;;
14247;SDS011;7208;49.826;6.004;2024-03-17T11:23:36;4.47;;;3.43;;
14247;SDS011;7208;49.826;6.004;2024-03-17T11:26:03;4.53;;;3.80;;
14247;SDS011;7208;49.826;6.004;2024-03-17T11:33:55;3.13;;;2.80;;
14247;SDS011;7208;49.826;6.004;2024-03-17T11:38:55;3.80;;;3.00;;
14247;SDS011;7208;49.826;6.004;2024-03-17T11:46:43;3.60;;;3.30;;
14247;SDS011;7208;49.826;6.004;2024-03-17T11:51:48;3.60;;;3.30;;
14247;SDS011;7208;49.826;6.004;2024-03-17T11:54:19;3.37;;;2.80;;
14247;SDS011;7208;49.826;6.004;2024-03-17T11:56:45;3.80;;;2.47;;
14247;SDS011;7208;49.826;6.004;2024-03-17T11:59:12;3.17;;;2.87;;
14247;SDS011;7208;49.826;6.004;2024-03-17T12:01:39;4.10;;;3.20;;
14247;SDS011;7208;49.826;6.004;2024-03-17T12:04:05;3.43;;;3.10;;
14247;SDS011;7208;49.826;6.004;2024-03-17T12:06:32;3.40;;;2.70;;
14247;SDS011;7208;49.826;6.004;2024-03-17T12:12:32;2.40;;;2.13;;
14247;SDS011;7208;49.826;6.004;2024-03-17T12:14:33;2.97;;;2.60;;
14247;SDS011;7208;49.826;6.004;2024-03-17T12:17:01;4.43;;;2.40;;
14247;SDS011;7208;49.826;6.004;2024-03-17T12:19:28;2.63;;;2.17;;
14247;SDS011;7208;49.826;6.004;2024-03-17T12:21:54;3.60;;;2.10;;
14247;SDS011;7208;49.826;6.004;2024-03-17T12:24:21;2.93;;;2.10;;
14247;SDS011;7208;49.826;6.004;2024-03-17T12:26:48;2.93;;;2.13;;
14247;SDS011;7208;49.826;6.004;2024-03-17T12:31:55;2.70;;;2.50;;
14247;SDS011;7208;49.826;6.004;2024-03-17T12:34:21;3.07;;;1.93;;
14247;SDS011;7208;49.826;6.004;2024-03-17T12:36:48;2.30;;;1.90;;
14247;SDS011;7208;49.826;6.004;2024-03-17T12:39:21;2.77;;;2.07;;
14247;SDS011;7208;49.826;6.004;2024-03-17T12:42:00;2.13;;;1.80;;
14247;SDS011;7208;49.826;6.004;2024-03-17T12:44:30;1.63;;;1.53;;
14247;SDS011;7208;49.826;6.004;2024-03-17T12:46:57;5.80;;;1.70;;
14247;SDS011;7208;49.826;6.004;2024-03-17T12:49:25;1.63;;;1.53;;
14247;SDS011;7208;49.826;6.004;2024-03-17T12:51:51;2.47;;;1.80;;
14247;SDS011;7208;49.826;6.004;2024-03-17T12:54:27;1.70;;;1.53;;
14247;SDS011;7208;49.826;6.004;2024-03-17T12:57:06;1.87;;;1.77;;
14247;SDS011;7208;49.826;6.004;2024-03-17T17:53:41;2.50;;;1.27;;
14247;SDS011;7208;49.826;6.004;2024-03-17T17:56:08;3.07;;;1.60;;
14247;SDS011;7208;49.826;6.004;2024-03-17T17:58:35;4.27;;;1.90;;
14247;SDS011;7208;49.826;6.004;2024-03-17T18:01:03;1.67;;;1.57;;
14247;SDS011;7208;49.826;6.004;2024-03-17T18:03:31;1.47;;;1.37;;
14247;SDS011;7208;49.826;6.004;2024-03-17T18:05:59;2.23;;;1.70;;
14247;SDS011;7208;49.826;6.004;2024-03-17T18:08:25;2.80;;;1.43;;
14247;SDS011;7208;49.826;6.004;2024-03-17T18:10:53;2.10;;;1.87;;
14247;SDS011;7208;49.826;6.004;2024-03-17T18:13:22;2.27;;;1.87;;
14247;SDS011;7208;49.826;6.004;2024-03-17T18:18:27;1.43;;;1.33;;
14247;SDS011;7208;49.826;6.004;2024-03-17T18:20:54;2.40;;;1.90;;
14247;SDS011;7208;49.826;6.004;2024-03-17T18:23:22;3.77;;;1.97;;
14247;SDS011;7208;49.826;6.004;2024-03-17T18:25:48;2.63;;;2.30;;
14247;SDS011;7208;49.826;6.004;2024-03-17T18:28:15;2.20;;;2.00;;
14247;SDS011;7208;49.826;6.004;2024-03-17T18:30:41;3.00;;;1.93;;
14247;SDS011;7208;49.826;6.004;2024-03-17T18:33:07;1.80;;;1.70;;
14247;SDS011;7208;49.826;6.004;2024-03-17T18:35:33;3.57;;;1.87;;
14247;SDS011;7208;49.826;6.004;2024-03-17T18:38:03;3.10;;;2.00;;
14247;SDS011;7208;49.826;6.004;2024-03-17T18:40:30;2.53;;;2.33;;
14247;SDS011;7208;49.826;6.004;2024-03-17T18:42:56;5.10;;;2.33;;
14247;SDS011;7208;49.826;6.004;2024-03-17T18:45:22;2.03;;;1.83;;
14247;SDS011;7208;49.826;6.004;2024-03-17T18:47:48;2.10;;;1.90;;
14247;SDS011;7208;49.826;6.004;2024-03-17T18:50:17;2.20;;;2.00;;
14247;SDS011;7208;49.826;6.004;2024-03-17T18:52:44;1.73;;;1.60;;
14247;SDS011;7208;49.826;6.004;2024-03-17T18:55:12;2.50;;;1.73;;
14247;SDS011;7208;49.826;6.004;2024-03-17T18:57:39;1.73;;;1.63;;
14247;SDS011;7208;49.826;6.004;2024-03-17T19:00:05;2.20;;;2.00;;
14247;SDS011;7208;49.826;6.004;2024-03-17T19:02:39;1.70;;;1.60;;
14247;SDS011;7208;49.826;6.004;2024-03-17T19:05:07;2.23;;;2.03;;
14247;SDS011;7208;49.826;6.004;2024-03-17T19:07:35;1.93;;;1.83;;
14247;SDS011;7208;49.826;6.004;2024-03-17T19:10:04;2.30;;;2.10;;
14247;SDS011;7208;49.826;6.004;2024-03-17T19:12:33;4.20;;;2.20;;
14247;SDS011;7208;49.826;6.004;2024-03-17T19:15:00;2.80;;;2.03;;
14247;SDS011;7208;49.826;6.004;2024-03-17T19:17:29;3.07;;;1.90;;
14247;SDS011;7208;49.826;6.004;2024-03-17T19:19:57;2.30;;;1.90;;
14247;SDS011;7208;49.826;6.004;2024-03-17T19:22:24;2.40;;;2.17;;
14247;SDS011;7208;49.826;6.004;2024-03-17T19:24:54;2.47;;;2.27;;
14247;SDS011;7208;49.826;6.004;2024-03-17T19:27:20;5.50;;;2.60;;
14247;SDS011;7208;49.826;6.004;2024-03-17T19:29:46;2.70;;;2.07;;
14247;SDS011;7208;49.826;6.004;2024-03-17T19:32:12;2.60;;;2.40;;
14247;SDS011;7208;49.826;6.004;2024-03-17T19:34:38;2.47;;;2.10;;
14247;SDS011;7208;49.826;6.004;2024-03-17T19:37:05;2.20;;;2.00;;
14247;SDS011;7208;49.826;6.004;2024-03-17T19:39:32;2.93;;;2.67;;
14247;SDS011;7208;49.826;6.004;2024-03-17T19:41:57;2.80;;;2.60;;
14247;SDS011;7208;49.826;6.004;2024-03-17T19:44:26;2.93;;;2.30;;
14247;SDS011;7208;49.826;6.004;2024-03-17T19:46:52;3.17;;;2.13;;
14247;SDS011;7208;49.826;6.004;2024-03-17T19:49:18;2.53;;;2.00;;
14247;SDS011;7208;49.826;6.004;2024-03-17T19:51:44;1.87;;;1.70;;
14247;SDS011;7208;49.826;6.004;2024-03-17T19:54:10;3.87;;;2.20;;
14247;SDS011;7208;49.826;6.004;2024-03-17T19:56:36;3.43;;;2.53;;
14247;SDS011;7208;49.826;6.004;2024-03-17T19:59:02;3.07;;;2.30;;
14247;SDS011;7208;49.826;6.004;2024-03-17T20:01:27;3.03;;;2.27;;
14247;SDS011;7208;49.826;6.004;2024-03-17T20:03:54;3.10;;;2.20;;
14247;SDS011;7208;49.826;6.004;2024-03-17T20:06:21;2.93;;;2.73;;
14247;SDS011;7208;49.826;6.004;2024-03-17T20:08:51;2.30;;;2.10;;
14247;SDS011;7208;49.826;6.004;2024-03-17T20:11:19;3.93;;;2.30;;
14247;SDS011;7208;49.826;6.004;2024-03-17T20:13:51;2.67;;;2.47;;
14247;SDS011;7208;49.826;6.004;2024-03-17T20:16:21;2.83;;;2.40;;
14247;SDS011;7208;49.826;6.004;2024-03-17T20:18:51;3.77;;;2.23;;
14247;SDS011;7208;49.826;6.004;2024-03-17T20:21:19;2.70;;;2.50;;